Ocean Tomo — 3FID9 — position and weather

sailwx.info

Track history (hours):
 
Tides and Currents Weather Stations Pressure Air Temp Water Temp Dewpoint Dewpoint Depression Visibility Wind Speed Wind Dir Waves Ship Positions

Ocean Tomo

Last reported at 2017-Aug-28 06:34 UTC. Time now 2017-Oct-23 00:50 UTC.
Position N 32°01' E 120°33'.
Warning: this ship's position is 55 days out of date.

Length 190 m; draft 5.4 m.

Type: Ship. MMSI: 372951000.

Date/timePositionNaut miles runAvg speedWind from/ knotsBaromVisibWave heightAir tempDewpointWater temp
2017-Aug-28 06:34N 32°01' E 120°33'111.0
2017-Aug-28 06:30N 32°01' E 120°32'5 9.2
2017-Aug-28 06:00N 32°02' E 120°27'  
2017-Aug-25 21:15N 32°20' E 119°47'6 8.0
2017-Aug-25 20:27N 32°15' E 119°53'4 9.1
2017-Aug-25 19:59N 32°11' E 119°54'5 9.3
2017-Aug-25 19:27N 32°07' E 119°55'4 8.5
2017-Aug-25 19:00N 32°03' E 119°56'4 8.0
2017-Aug-25 18:30N 31°60' E 119°59'4 7.9
2017-Aug-25 18:00N 31°58' E 120°03'4 7.7
2017-Aug-25 17:30N 31°57' E 120°08'4 7.7
2017-Aug-25 17:00N 31°56' E 120°12'3 6.9
2017-Aug-25 16:30N 31°57' E 120°16'510.6
2017-Aug-25 16:01N 31°60' E 120°21'4 8.0
2017-Aug-25 15:30N 32°02' E 120°26'4 8.4
2017-Aug-25 15:00N 32°02' E 120°30'611.2
2017-Aug-25 14:26N 31°60' E 120°37'23 9.0
2017-Aug-25 11:53N 31°47' E 120°60'411.0
2017-Aug-25 11:30N 31°46' E 121°04'611.1
2017-Aug-25 10:59N 31°42' E 121°09'711.9
2017-Aug-25 10:26N 31°38' E 121°16'512.2
2017-Aug-25 10:00N 31°34' E 121°19'612.0
2017-Aug-25 09:30N 31°30' E 121°25'611.5
2017-Aug-25 09:00N 31°26' E 121°30'4 7.3
2017-Aug-25 08:30N 31°24' E 121°33'4 7.9
2017-Aug-25 08:00N 31°22' E 121°37'4 8.9
2017-Aug-25 07:30N 31°20' E 121°42'4 8.0
2017-Aug-25 07:00N 31°17' E 121°45'4 7.4
2017-Aug-25 06:30N 31°14' E 121°48'510.8
2017-Aug-25 06:01N 31°10' E 121°52'714.1
2017-Aug-25 05:30N 31°06' E 121°59'815.2
2017-Aug-25 05:00N 31°04' E 122°07'612.9
2017-Aug-25 04:31N 31°03' E 122°15'814.4
2017-Aug-25 03:59N 31°06' E 122°23'510.2
2017-Aug-25 03:30N 31°07' E 122°28'38 3.9
2017-Aug-24 17:40N 31°10' E 123°13'  
Track history (hours):
 
Tides and Currents Weather Stations Pressure Air Temp Water Temp Dewpoint Dewpoint Depression Visibility Wind Speed Wind Dir Waves Ship Positions

Ocean Tomo

Last reported at 2017-Aug-28 06:34 UTC. Time now 2017-Oct-23 00:50 UTC.
Position N 32°01' E 120°33'.
Warning: this ship's position is 55 days out of date.

Length 190 m; draft 5.4 m.

Type: Ship. MMSI: 372951000.

Date/timePositionNaut miles runAvg speedWind from/ knotsBaromVisibWave heightAir tempDewpointWater temp
2017-Aug-28 06:34N 32°01' E 120°33'111.0
2017-Aug-28 06:30N 32°01' E 120°32'5 9.2
2017-Aug-28 06:00N 32°02' E 120°27'  
2017-Aug-25 21:15N 32°20' E 119°47'6 8.0
2017-Aug-25 20:27N 32°15' E 119°53'4 9.1
2017-Aug-25 19:59N 32°11' E 119°54'5 9.3
2017-Aug-25 19:27N 32°07' E 119°55'4 8.5
2017-Aug-25 19:00N 32°03' E 119°56'4 8.0
2017-Aug-25 18:30N 31°60' E 119°59'4 7.9
2017-Aug-25 18:00N 31°58' E 120°03'4 7.7
2017-Aug-25 17:30N 31°57' E 120°08'4 7.7
2017-Aug-25 17:00N 31°56' E 120°12'3 6.9
2017-Aug-25 16:30N 31°57' E 120°16'510.6
2017-Aug-25 16:01N 31°60' E 120°21'4 8.0
2017-Aug-25 15:30N 32°02' E 120°26'4 8.4
2017-Aug-25 15:00N 32°02' E 120°30'611.2
2017-Aug-25 14:26N 31°60' E 120°37'23 9.0
2017-Aug-25 11:53N 31°47' E 120°60'411.0
2017-Aug-25 11:30N 31°46' E 121°04'611.1
2017-Aug-25 10:59N 31°42' E 121°09'711.9
2017-Aug-25 10:26N 31°38' E 121°16'512.2
2017-Aug-25 10:00N 31°34' E 121°19'612.0
2017-Aug-25 09:30N 31°30' E 121°25'611.5
2017-Aug-25 09:00N 31°26' E 121°30'4 7.3
2017-Aug-25 08:30N 31°24' E 121°33'4 7.9
2017-Aug-25 08:00N 31°22' E 121°37'4 8.9
2017-Aug-25 07:30N 31°20' E 121°42'4 8.0
2017-Aug-25 07:00N 31°17' E 121°45'4 7.4
2017-Aug-25 06:30N 31°14' E 121°48'510.8
2017-Aug-25 06:01N 31°10' E 121°52'714.1
2017-Aug-25 05:30N 31°06' E 121°59'815.2
2017-Aug-25 05:00N 31°04' E 122°07'612.9
2017-Aug-25 04:31N 31°03' E 122°15'814.4
2017-Aug-25 03:59N 31°06' E 122°23'510.2
2017-Aug-25 03:30N 31°07' E 122°28'38 3.9
2017-Aug-24 17:40N 31°10' E 123°13'  

Dump ship's entire track history